Hovedside
METAR-TAF:

METAR-TAF

Lufthavner :

Stockholm-Skavsta, Sverige

Skavsta lufthavn

breddegrad: 58-47N, lengdegrad: 016-55E, høyde over havet: 43 m

Gjeldene værobservasjon

Denne rapporten ble laget for 31 minutter siden, klokken 21:20 UTC
Vind 3 kt fra Øst
Temperatur 15°C
Luftfuktighet 94%
Trykk 1009 hPa
Sikt: 9000 m
dis

METAR: ESKN 182120Z 09003KT 9000 BR NSC 15/14 Q1009

Tid: 23:51 (21:51 UTC)

Varsel

Denne rapporten ble laget for 4 timer og 21 minutter siden, klokken 17:30 UTC
Varsel gyldig fra 18. klokken 18 UTC til 19. klokken 18 UTC
Vind 5 kt fra Sørøst
Sikt 10 km eller mer
ingen skyer under 1500 m og ingen bygeskyer
Midlertidig
fra 19. klokken 00 UTC til 19. klokken 07 UTC
Brutte skyer i en høyde av 900 ft
Brutte skyer i en høyde av 3000 ft, Bygeskyer.
regnbyger
Blir
fra 19. klokken 05 UTC til 19. klokken 08 UTC
Vind 12 kt fra Vest-sørvest

TAF: ESKN 181730Z 1818/1918 14005KT CAVOK TEMPO 1900/1907 SHRA BKN009 BKN030CB BECMG 1905/1908 24012KT

Værobservasjoner og værvarsel for over 4000 flyplasser (METAR- og TAF-rapporter).

Tilgjengelige stasjoner er representert av de røde og gule prikkene på kartet.

Hold musepekeren over prikken for å se navnet på stasjonen.

Klikk så for å se værobservasjoner og -varsler.

For å forandre kartet kan du klikke på den grønne knappen med svart kryss for å zoome inn, på den grønne knappen med strek for å zoome ut, eller på de grønne pilene for å se tilstøtende kart.


METAR-TAF: